CW3467 Weather Reports


Display with metric or nautical units.
time (UTC)temp
F
wind
direction
speed
MPH
gust
MPH
rain 1hr
in
rain 24hr
in
rain mn
in
humidity
%
barometer
mb
20190617200059 75 112 8.0 14.0 0.00 0.00 0.00 45 1014.8
20190617194509 76 132 9.0 16.0 0.00 0.00 0.00 44 1014.6
20190617193102 77 122 11.0 20.0 0.00 0.00 0.00 43 1014.5
20190617191612 78 135 13.0 20.0 0.00 0.00 0.00 40 1014.5
20190617184643 80 158 13.0 23.0 0.00 0.00 0.00 38 1014.2
20190617173004 85 200 5.0 9.0 0.00 0.00 0.00 28 1013.7
20190617171628 86 207 4.0 9.0 0.00 0.00 0.00 29 1013.7
20190617170123 86 248 3.0 9.0 0.00 0.00 0.00 29 1013.6
20190617164625 87 179 2.0 10.0 0.00 0.00 0.00 28 1013.6
20190617161714 87 266 4.0 8.0 0.00 0.00 0.00 26 1013.7
20190617160136 87 279 4.0 9.0 0.00 0.00 0.00 26 1013.9
20190617154504 88 222 5.0 11.0 0.00 0.00 0.00 25 1014.0
20190617153141 88 205 2.0 9.0 0.00 0.00 0.00 25 1014.1
20190617151656 87 216 2.0 10.0 0.00 0.00 0.00 25 1014.2
20190617150127 88 224 4.0 8.0 0.00 0.00 0.00 25 1014.3
20190617143107 87 211 6.0 13.0 0.00 0.00 0.00 24 1014.7
20190617141652 87 288 3.0 8.0 0.00 0.00 0.00 24 1014.8
20190617140240 87 190 5.0 10.0 0.00 0.00 0.00 23 1014.8
20190617134637 88 161 4.0 8.0 0.00 0.00 0.00 23 1015.0
20190617133016 87 193 3.0 9.0 0.00 0.00 0.00 23 1015.3
20190617131614 85 145 4.0 9.0 0.00 0.00 0.00 24 1015.4
20190617120145 85 204 4.0 8.0 0.00 0.00 0.00 26 1016.2
20190617114606 85 186 3.0 6.0 0.00 0.00 0.00 27 1016.4
20190617113027 84 206 2.0 6.0 0.00 0.00 0.00 28 1016.6
20190617110109 83 226 2.0 5.0 0.00 0.00 0.00 29 1016.8
20190617104511 83 135 3.0 5.0 0.00 0.00 0.00 30 1016.9
20190617103101 82 216 0.0 3.0 0.00 0.00 0.00 32 1017.0
20190617101626 81 131 1.0 4.0 0.00 0.00 0.00 35 1017.1
20190617094637 76 316 1.0 4.0 0.00 0.00 0.00 37 1017.5
20190617093144 78 147 1.0 4.0 0.00 0.00 0.00 38 1017.6
20190617090135 75 232 1.0 4.0 0.00 0.00 0.00 41 1017.9
20190617084653 73 207 0.0 3.0 0.00 0.00 0.00 43 1017.9
20190617083017 73 132 0.0 2.0 0.00 0.00 0.00 43 1018.0
20190617080044 70 221 1.0 3.0 0.00 0.00 0.00 47 1018.2
20190617074742 69 146 0.0 3.0 0.00 0.00 0.00 48 1018.3
20190617073132 67 165 1.0 3.0 0.00 0.00 0.00 52 1018.4
20190617071614 65 101 0.0 2.0 0.00 0.00 0.00 53 1018.5
20190617070141 65 202 0.0 2.0 0.00 0.00 0.00 55 1018.5
20190617064626 65 167 0.0 3.0 0.00 0.00 0.00 54 1018.5
20190617063100 66 221 0.0 1.0 0.00 0.00 0.00 53 1018.4
20190617060203 63 137 0.0 1.0 0.00 0.00 0.00 57 1018.5
20190617054640 59 137 0.0 1.0 0.00 0.00 0.00 63 1018.4
20190617050219 56 103 1.0 2.0 0.00 0.00 0.00 66 1018.1
20190617044521 57 101 0.0 3.0 0.00 0.00 0.00 64 1018.1
20190617043140 57 96 1.0 2.0 0.00 0.00 0.00 65 1017.9
20190617041621 57 87 0.0 2.0 0.00 0.00 0.00 65 1017.8
20190617040209 57 129 0.0 1.0 0.00 0.00 0.00 64 1017.8
20190617034645 57 134 0.0 1.0 0.00 0.00 0.00 63 1017.8
20190617030101 58 118 2.0 4.0 0.00 0.00 0.00 63 1017.8
20190617024759 59 125 1.0 2.0 0.00 0.00 0.00 61 1017.7
20190617023158 59 103 1.0 2.0 0.00 0.00 0.00 61 1017.7
20190617021521 59 122 0.0 2.0 0.00 0.00 0.00 60 1017.8
20190617020118 60 124 0.0 2.0 0.00 0.00 0.00 59 1017.8
20190617014600 59 84 0.0 1.0 0.00 0.00 0.00 60 1017.9
20190617013120 60 84 0.0 1.0 0.00 0.00 0.00 60 1017.9
20190617011619 60 84 0.0 3.0 0.00 0.00 0.00 60 1018.0
20190617010119 60 110 1.0 2.0 0.00 0.00 0.00 58 1018.1
20190617004727 61 115 0.0 1.0 0.00 0.00 0.00 57 1018.2
20190617003007 62 86 0.0 2.0 0.00 0.00 0.00 55 1018.1
20190617000036 62 122 0.0 1.0 0.00 0.00 0.00 54 1018.2
20190616233132 64 122 0.0 1.0 0.00 0.00 0.00 51 1018.2
20190616224719 66 122 3.0 4.0 0.00 0.00 0.00 49 1018.3
20190616223139 65 79 1.0 2.0 0.00 0.00 0.00 49 1018.3
20190616221636 66 125 0.0 1.0 0.00 0.00 0.00 48 1018.3
20190616220114 67 124 0.0 1.0 0.00 0.00 0.00 45 1018.2
20190616214505 68 16 0.0 1.0 0.00 0.00 0.00 45 1018.1
20190616213131 69 337 0.0 2.0 0.00 0.00 0.00 43 1017.9
20190616211728 69 36 0.0 2.0 0.00 0.00 0.00 43 1017.8
20190616210204 69 329 0.0 3.0 0.00 0.00 0.00 42 1017.7